sensor_id;sensor_type;location;lat;lon;timestamp;pressure;altitude;pressure_sealevel;temperature;humidity
52975;BME280;38839;45.186;5.720;2023-07-29T00:00:16;98837.44;;;24.06;100.00
52975;BME280;38839;45.186;5.720;2023-07-29T00:02:42;98836.22;;;24.12;100.00
52975;BME280;38839;45.186;5.720;2023-07-29T00:05:07;98831.81;;;24.11;100.00
52975;BME280;38839;45.186;5.720;2023-07-29T00:07:33;98828.69;;;24.04;100.00
52975;BME280;38839;45.186;5.720;2023-07-29T00:09:58;98830.59;;;24.02;100.00
52975;BME280;38839;45.186;5.720;2023-07-29T00:12:23;98826.97;;;24.03;100.00
52975;BME280;38839;45.186;5.720;2023-07-29T00:14:49;98834.03;;;24.04;100.00
52975;BME280;38839;45.186;5.720;2023-07-29T00:17:14;98834.03;;;24.04;100.00
52975;BME280;38839;45.186;5.720;2023-07-29T00:19:40;98850.19;;;24.01;100.00
52975;BME280;38839;45.186;5.720;2023-07-29T00:22:05;98852.84;;;24.01;100.00
52975;BME280;38839;45.186;5.720;2023-07-29T00:24:31;98847.75;;;23.98;100.00
52975;BME280;38839;45.186;5.720;2023-07-29T00:26:56;98855.81;;;23.97;100.00
52975;BME280;38839;45.186;5.720;2023-07-29T00:29:21;98852.84;;;24.01;100.00
52975;BME280;38839;45.186;5.720;2023-07-29T00:31:47;98850.19;;;24.01;100.00
52975;BME280;38839;45.186;5.720;2023-07-29T00:34:12;98849.44;;;23.99;100.00
52975;BME280;38839;45.186;5.720;2023-07-29T00:36:42;98853.63;;;24.03;100.00
52975;BME280;38839;45.186;5.720;2023-07-29T00:39:07;98852.97;;;24.00;100.00
52975;BME280;38839;45.186;5.720;2023-07-29T00:41:33;98852.47;;;23.93;100.00
52975;BME280;38839;45.186;5.720;2023-07-29T00:43:58;98858.97;;;23.89;100.00
52975;BME280;38839;45.186;5.720;2023-07-29T00:46:24;98858.03;;;23.90;100.00
52975;BME280;38839;45.186;5.720;2023-07-29T00:48:49;98850.13;;;23.88;100.00
52975;BME280;38839;45.186;5.720;2023-07-29T00:51:15;98850.56;;;23.95;100.00
52975;BME280;38839;45.186;5.720;2023-07-29T00:53:40;98853.44;;;23.92;100.00
52975;BME280;38839;45.186;5.720;2023-07-29T00:56:06;98857.81;;;23.93;100.00
52975;BME280;38839;45.186;5.720;2023-07-29T00:58:31;98861.44;;;23.92;100.00
52975;BME280;38839;45.186;5.720;2023-07-29T01:00:57;98861.44;;;23.92;100.00
52975;BME280;38839;45.186;5.720;2023-07-29T01:03:23;98864.19;;;23.90;100.00
52975;BME280;38839;45.186;5.720;2023-07-29T01:14:06;98849.25;;;23.74;100.00
52975;BME280;38839;45.186;5.720;2023-07-29T01:16:39;98848.66;;;23.68;100.00
52975;BME280;38839;45.186;5.720;2023-07-29T01:19:07;98860.44;;;23.64;100.00
52975;BME280;38839;45.186;5.720;2023-07-29T01:21:39;98865.00;;;23.62;100.00
52975;BME280;38839;45.186;5.720;2023-07-29T01:24:05;98871.09;;;23.64;100.00
52975;BME280;38839;45.186;5.720;2023-07-29T01:26:30;98861.22;;;23.66;100.00
52975;BME280;38839;45.186;5.720;2023-07-29T01:28:59;98858.91;;;23.60;100.00
52975;BME280;38839;45.186;5.720;2023-07-29T01:31:36;98851.44;;;23.53;100.00
52975;BME280;38839;45.186;5.720;2023-07-29T01:34:22;98856.00;;;23.50;100.00
52975;BME280;38839;45.186;5.720;2023-07-29T01:36:50;98860.72;;;23.45;100.00
52975;BME280;38839;45.186;5.720;2023-07-29T01:39:17;98871.66;;;23.41;100.00
52975;BME280;38839;45.186;5.720;2023-07-29T01:41:45;98860.97;;;23.26;100.00
52975;BME280;38839;45.186;5.720;2023-07-29T01:44:11;98859.84;;;23.30;100.00
52975;BME280;38839;45.186;5.720;2023-07-29T01:46:37;98861.75;;;23.28;100.00
52975;BME280;38839;45.186;5.720;2023-07-29T01:49:03;98864.56;;;23.25;100.00
52975;BME280;38839;45.186;5.720;2023-07-29T01:51:28;98857.72;;;23.21;100.00
52975;BME280;38839;45.186;5.720;2023-07-29T01:53:53;98865.22;;;23.15;100.00
52975;BME280;38839;45.186;5.720;2023-07-29T01:56:21;98863.41;;;23.15;100.00
52975;BME280;38839;45.186;5.720;2023-07-29T01:58:46;98852.97;;;23.12;100.00
52975;BME280;38839;45.186;5.720;2023-07-29T02:01:12;98852.97;;;23.12;100.00
52975;BME280;38839;45.186;5.720;2023-07-29T02:03:37;98851.25;;;23.11;100.00
52975;BME280;38839;45.186;5.720;2023-07-29T02:06:03;98856.06;;;23.04;100.00
52975;BME280;38839;45.186;5.720;2023-07-29T02:08:28;98856.69;;;22.94;100.00
52975;BME280;38839;45.186;5.720;2023-07-29T02:10:53;98857.53;;;22.94;100.00
52975;BME280;38839;45.186;5.720;2023-07-29T02:13:19;98857.53;;;22.94;100.00
52975;BME280;38839;45.186;5.720;2023-07-29T02:15:44;98864.47;;;22.97;100.00
52975;BME280;38839;45.186;5.720;2023-07-29T02:18:10;98857.72;;;22.91;100.00
52975;BME280;38839;45.186;5.720;2023-07-29T02:20:35;98861.25;;;22.92;100.00
52975;BME280;38839;45.186;5.720;2023-07-29T02:23:00;98863.69;;;22.95;100.00
52975;BME280;38839;45.186;5.720;2023-07-29T02:25:26;98847.75;;;22.95;100.00
52975;BME280;38839;45.186;5.720;2023-07-29T02:27:51;98862.16;;;22.90;100.00
52975;BME280;38839;45.186;5.720;2023-07-29T02:30:16;98860.63;;;22.86;100.00
52975;BME280;38839;45.186;5.720;2023-07-29T02:32:42;98856.34;;;22.84;100.00
52975;BME280;38839;45.186;5.720;2023-07-29T02:35:07;98851.72;;;22.87;100.00
52975;BME280;38839;45.186;5.720;2023-07-29T02:37:33;98856.84;;;22.90;100.00
52975;BME280;38839;45.186;5.720;2023-07-29T02:39:58;98851.72;;;22.87;100.00
52975;BME280;38839;45.186;5.720;2023-07-29T02:42:23;98865.03;;;22.87;100.00
52975;BME280;38839;45.186;5.720;2023-07-29T02:44:49;98859.69;;;22.87;100.00
52975;BME280;38839;45.186;5.720;2023-07-29T02:47:14;98862.53;;;22.84;100.00
52975;BME280;38839;45.186;5.720;2023-07-29T02:49:40;98865.19;;;22.84;100.00
52975;BME280;38839;45.186;5.720;2023-07-29T02:52:05;98867.84;;;22.84;100.00
52975;BME280;38839;45.186;5.720;2023-07-29T02:54:30;98865.09;;;22.86;100.00
52975;BME280;38839;45.186;5.720;2023-07-29T02:56:56;98860.81;;;22.83;100.00
52975;BME280;38839;45.186;5.720;2023-07-29T02:59:21;98853.19;;;22.77;100.00
52975;BME280;38839;45.186;5.720;2023-07-29T03:01:47;98857.91;;;22.72;100.00
52975;BME280;38839;45.186;5.720;2023-07-29T03:04:12;98858.09;;;22.69;100.00
52975;BME280;38839;45.186;5.720;2023-07-29T03:06:40;98854.84;;;22.64;100.00
52975;BME280;38839;45.186;5.720;2023-07-29T03:09:05;98867.22;;;22.65;100.00
52975;BME280;38839;45.186;5.720;2023-07-29T03:11:31;98863.59;;;22.66;100.00
52975;BME280;38839;45.186;5.720;2023-07-29T03:13:56;98863.59;;;22.66;100.00
52975;BME280;38839;45.186;5.720;2023-07-29T03:16:22;98865.47;;;22.64;100.00
52975;BME280;38839;45.186;5.720;2023-07-29T03:18:48;98866.78;;;22.57;100.00
52975;BME280;38839;45.186;5.720;2023-07-29T03:21:14;98869.44;;;22.25;100.00
52975;BME280;38839;45.186;5.720;2023-07-29T03:23:39;98872.59;;;22.16;100.00
52975;BME280;38839;45.186;5.720;2023-07-29T03:26:05;98871.88;;;21.96;100.00
52975;BME280;38839;45.186;5.720;2023-07-29T03:28:42;98875.38;;;21.81;100.00
52975;BME280;38839;45.186;5.720;2023-07-29T03:31:08;98868.91;;;21.69;100.00
52975;BME280;38839;45.186;5.720;2023-07-29T03:33:34;98867.06;;;21.54;100.00
52975;BME280;38839;45.186;5.720;2023-07-29T03:35:59;98872.06;;;21.42;100.00
52975;BME280;38839;45.186;5.720;2023-07-29T03:38:25;98872.00;;;21.44;100.00
52975;BME280;38839;45.186;5.720;2023-07-29T03:40:50;98881.50;;;21.48;100.00
52975;BME280;38839;45.186;5.720;2023-07-29T03:43:16;98880.09;;;21.58;100.00
52975;BME280;38839;45.186;5.720;2023-07-29T03:45:41;98873.06;;;21.57;100.00
52975;BME280;38839;45.186;5.720;2023-07-29T03:48:07;98880.56;;;21.49;100.00
52975;BME280;38839;45.186;5.720;2023-07-29T03:50:36;98874.78;;;21.23;100.00
52975;BME280;38839;45.186;5.720;2023-07-29T03:53:02;98878.38;;;21.22;100.00
52975;BME280;38839;45.186;5.720;2023-07-29T03:55:28;98867.38;;;21.30;100.00
52975;BME280;38839;45.186;5.720;2023-07-29T03:57:56;98860.53;;;21.43;100.00
52975;BME280;38839;45.186;5.720;2023-07-29T04:00:21;98857.63;;;21.48;100.00
52975;BME280;38839;45.186;5.720;2023-07-29T04:02:46;98862.63;;;21.54;100.00
52975;BME280;38839;45.186;5.720;2023-07-29T04:05:12;98862.00;;;21.32;100.00
52975;BME280;38839;45.186;5.720;2023-07-29T04:07:37;98870.03;;;21.30;100.00
52975;BME280;38839;45.186;5.720;2023-07-29T04:10:03;98874.31;;;21.33;100.00
52975;BME280;38839;45.186;5.720;2023-07-29T04:12:30;98870.81;;;21.32;100.00
52975;BME280;38839;45.186;5.720;2023-07-29T04:14:55;98876.03;;;21.34;100.00
52975;BME280;38839;45.186;5.720;2023-07-29T04:17:21;98872.59;;;21.32;100.00
52975;BME280;38839;45.186;5.720;2023-07-29T04:19:46;98875.88;;;21.02;100.00
52975;BME280;38839;45.186;5.720;2023-07-29T04:22:11;98879.69;;;20.79;100.00
52975;BME280;38839;45.186;5.720;2023-07-29T04:24:37;98885.03;;;20.60;100.00
52975;BME280;38839;45.186;5.720;2023-07-29T04:27:03;98881.28;;;20.64;100.00
52975;BME280;38839;45.186;5.720;2023-07-29T04:29:28;98886.44;;;20.67;100.00
52975;BME280;38839;45.186;5.720;2023-07-29T04:31:54;98878.09;;;20.75;100.00
52975;BME280;38839;45.186;5.720;2023-07-29T04:34:19;98888.59;;;20.95;100.00
52975;BME280;38839;45.186;5.720;2023-07-29T04:36:45;98888.81;;;21.08;100.00
52975;BME280;38839;45.186;5.720;2023-07-29T04:39:11;98879.38;;;21.20;100.00
52975;BME280;38839;45.186;5.720;2023-07-29T04:41:36;98883.66;;;21.22;100.00
52975;BME280;38839;45.186;5.720;2023-07-29T04:44:02;98880.63;;;21.30;100.00
52975;BME280;38839;45.186;5.720;2023-07-29T04:46:27;98876.88;;;21.34;100.00
52975;BME280;38839;45.186;5.720;2023-07-29T04:48:53;98869.56;;;21.39;100.00
52975;BME280;38839;45.186;5.720;2023-07-29T04:51:18;98872.38;;;21.54;100.00
52975;BME280;38839;45.186;5.720;2023-07-29T04:53:43;98873.84;;;21.59;100.00
52975;BME280;38839;45.186;5.720;2023-07-29T04:56:09;98868.75;;;21.72;100.00
52975;BME280;38839;45.186;5.720;2023-07-29T04:58:34;98877.03;;;21.99;100.00
52975;BME280;38839;45.186;5.720;2023-07-29T05:01:01;98873.56;;;22.46;100.00
52975;BME280;38839;45.186;5.720;2023-07-29T05:03:26;98874.28;;;22.80;100.00
52975;BME280;38839;45.186;5.720;2023-07-29T05:05:52;98872.41;;;23.28;100.00
52975;BME280;38839;45.186;5.720;2023-07-29T05:08:19;98875.97;;;23.72;100.00
52975;BME280;38839;45.186;5.720;2023-07-29T05:10:48;98871.91;;;23.95;100.00
52975;BME280;38839;45.186;5.720;2023-07-29T05:13:15;98875.50;;;24.23;100.00
52975;BME280;38839;45.186;5.720;2023-07-29T05:15:40;98879.84;;;24.38;100.00
52975;BME280;38839;45.186;5.720;2023-07-29T05:18:05;98882.25;;;24.70;100.00
52975;BME280;38839;45.186;5.720;2023-07-29T05:20:31;98881.06;;;24.61;100.00
52975;BME280;38839;45.186;5.720;2023-07-29T05:22:56;98872.75;;;24.66;100.00
52975;BME280;38839;45.186;5.720;2023-07-29T05:25:21;98879.47;;;24.30;100.00
52975;BME280;38839;45.186;5.720;2023-07-29T05:27:47;98875.91;;;24.58;100.00
52975;BME280;38839;45.186;5.720;2023-07-29T05:30:12;98879.06;;;25.05;100.00
52975;BME280;38839;45.186;5.720;2023-07-29T05:32:38;98880.44;;;25.38;100.00
52975;BME280;38839;45.186;5.720;2023-07-29T05:35:03;98875.53;;;25.83;100.00
52975;BME280;38839;45.186;5.720;2023-07-29T05:37:29;98881.88;;;26.44;100.00
52975;BME280;38839;45.186;5.720;2023-07-29T05:39:54;98881.00;;;27.40;96.01
52975;BME280;38839;45.186;5.720;2023-07-29T05:42:20;98876.69;;;28.41;86.39
52975;BME280;38839;45.186;5.720;2023-07-29T05:44:46;98865.38;;;28.15;87.70
52975;BME280;38839;45.186;5.720;2023-07-29T05:47:11;98860.09;;;28.47;86.71
52975;BME280;38839;45.186;5.720;2023-07-29T05:49:37;98862.59;;;28.71;80.51
52975;BME280;38839;45.186;5.720;2023-07-29T05:52:02;98865.25;;;29.15;79.66
52975;BME280;38839;45.186;5.720;2023-07-29T05:54:28;98864.53;;;29.34;77.93
52975;BME280;38839;45.186;5.720;2023-07-29T05:56:53;98856.69;;;29.42;74.40
52975;BME280;38839;45.186;5.720;2023-07-29T05:59:18;98867.91;;;30.39;71.98
52975;BME280;38839;45.186;5.720;2023-07-29T06:01:44;98865.69;;;30.54;70.43
52975;BME280;38839;45.186;5.720;2023-07-29T06:04:09;98865.31;;;31.94;64.60
52975;BME280;38839;45.186;5.720;2023-07-29T06:06:35;98863.06;;;34.04;55.69
52975;BME280;38839;45.186;5.720;2023-07-29T06:09:00;98858.28;;;32.11;57.63
52975;BME280;38839;45.186;5.720;2023-07-29T06:11:26;98858.91;;;30.19;66.37
52975;BME280;38839;45.186;5.720;2023-07-29T06:13:51;98866.25;;;28.70;75.81
52975;BME280;38839;45.186;5.720;2023-07-29T06:16:16;98867.78;;;28.52;76.64
52975;BME280;38839;45.186;5.720;2023-07-29T06:18:42;98862.44;;;27.95;82.15
52975;BME280;38839;45.186;5.720;2023-07-29T06:21:07;98856.91;;;29.39;75.02
52975;BME280;38839;45.186;5.720;2023-07-29T06:23:35;98858.44;;;29.11;73.94
52975;BME280;38839;45.186;5.720;2023-07-29T06:26:01;98851.22;;;28.13;79.71
52975;BME280;38839;45.186;5.720;2023-07-29T06:28:26;98854.59;;;27.81;81.59
52975;BME280;38839;45.186;5.720;2023-07-29T06:30:52;98858.19;;;27.23;87.06
52975;BME280;38839;45.186;5.720;2023-07-29T06:33:18;98850.94;;;28.49;80.99
52975;BME280;38839;45.186;5.720;2023-07-29T06:35:43;98855.22;;;28.41;79.91
52975;BME280;38839;45.186;5.720;2023-07-29T06:38:08;98855.78;;;28.44;77.16
52975;BME280;38839;45.186;5.720;2023-07-29T06:40:34;98848.44;;;28.03;79.11
52975;BME280;38839;45.186;5.720;2023-07-29T06:42:59;98863.97;;;27.17;85.05
52975;BME280;38839;45.186;5.720;2023-07-29T06:45:25;98863.38;;;27.60;83.04
52975;BME280;38839;45.186;5.720;2023-07-29T06:47:50;98855.94;;;27.64;82.29
52975;BME280;38839;45.186;5.720;2023-07-29T06:50:15;98865.88;;;29.07;75.75
52975;BME280;38839;45.186;5.720;2023-07-29T06:52:41;98869.53;;;30.71;66.41
52975;BME280;38839;45.186;5.720;2023-07-29T06:55:06;98861.59;;;30.79;64.23
52975;BME280;38839;45.186;5.720;2023-07-29T06:57:32;98867.53;;;30.23;65.70
52975;BME280;38839;45.186;5.720;2023-07-29T06:59:57;98869.50;;;30.21;64.86
52975;BME280;38839;45.186;5.720;2023-07-29T07:02:23;98869.78;;;28.71;69.62
52975;BME280;38839;45.186;5.720;2023-07-29T07:04:48;98869.22;;;27.65;73.75
52975;BME280;38839;45.186;5.720;2023-07-29T07:07:15;98870.59;;;28.39;71.91
52975;BME280;38839;45.186;5.720;2023-07-29T07:09:41;98876.94;;;28.81;70.48
52975;BME280;38839;45.186;5.720;2023-07-29T07:12:07;98869.78;;;29.56;67.22
52975;BME280;38839;45.186;5.720;2023-07-29T07:14:32;98867.66;;;29.81;66.64
52975;BME280;38839;45.186;5.720;2023-07-29T07:16:57;98873.00;;;28.97;68.78
52975;BME280;38839;45.186;5.720;2023-07-29T07:19:23;98857.09;;;29.05;70.27
52975;BME280;38839;45.186;5.720;2023-07-29T07:21:48;98859.19;;;29.85;67.24
52975;BME280;38839;45.186;5.720;2023-07-29T07:24:14;98864.28;;;30.29;65.01
52975;BME280;38839;45.186;5.720;2023-07-29T07:26:39;98862.53;;;30.49;64.26
52975;BME280;38839;45.186;5.720;2023-07-29T07:29:05;98874.72;;;29.72;68.01
52975;BME280;38839;45.186;5.720;2023-07-29T07:31:33;98878.19;;;29.09;72.05
52975;BME280;38839;45.186;5.720;2023-07-29T07:33:58;98873.97;;;29.49;71.09
52975;BME280;38839;45.186;5.720;2023-07-29T07:36:24;98874.75;;;29.82;69.46
52975;BME280;38839;45.186;5.720;2023-07-29T07:38:49;98874.84;;;30.32;66.16
52975;BME280;38839;45.186;5.720;2023-07-29T07:41:15;98875.09;;;30.89;63.74
52975;BME280;38839;45.186;5.720;2023-07-29T07:43:41;98875.31;;;30.57;63.86
52975;BME280;38839;45.186;5.720;2023-07-29T07:46:06;98876.72;;;29.59;66.46
52975;BME280;38839;45.186;5.720;2023-07-29T07:48:31;98886.91;;;28.47;71.63
52975;BME280;38839;45.186;5.720;2023-07-29T07:50:58;98880.38;;;27.95;75.06
52975;BME280;38839;45.186;5.720;2023-07-29T07:53:24;98882.88;;;27.85;77.77
52975;BME280;38839;45.186;5.720;2023-07-29T07:55:51;98876.44;;;27.76;79.19
52975;BME280;38839;45.186;5.720;2023-07-29T07:58:16;98875.13;;;28.04;79.69
52975;BME280;38839;45.186;5.720;2023-07-29T08:00:42;98870.69;;;28.60;76.92
52975;BME280;38839;45.186;5.720;2023-07-29T08:03:08;98875.59;;;29.19;72.87
52975;BME280;38839;45.186;5.720;2023-07-29T08:05:33;98873.31;;;28.71;74.58
52975;BME280;38839;45.186;5.720;2023-07-29T08:07:59;98870.34;;;28.53;75.69
52975;BME280;38839;45.186;5.720;2023-07-29T08:10:24;98867.28;;;28.24;77.86
52975;BME280;38839;45.186;5.720;2023-07-29T08:12:50;98868.41;;;28.21;78.28
52975;BME280;38839;45.186;5.720;2023-07-29T08:15:15;98866.09;;;29.57;73.18
52975;BME280;38839;45.186;5.720;2023-07-29T08:17:40;98874.25;;;31.18;63.16
52975;BME280;38839;45.186;5.720;2023-07-29T08:20:06;98876.66;;;32.53;60.64
52975;BME280;38839;45.186;5.720;2023-07-29T08:22:32;98870.50;;;35.53;49.11
52975;BME280;38839;45.186;5.720;2023-07-29T08:24:57;98875.72;;;37.44;42.84
52975;BME280;38839;45.186;5.720;2023-07-29T08:27:22;98867.66;;;36.81;42.97
52975;BME280;38839;45.186;5.720;2023-07-29T08:29:48;98875.25;;;35.59;43.73
52975;BME280;38839;45.186;5.720;2023-07-29T08:32:13;98876.47;;;33.54;47.99
52975;BME280;38839;45.186;5.720;2023-07-29T08:34:38;98866.13;;;31.27;53.83
52975;BME280;38839;45.186;5.720;2023-07-29T08:37:04;98862.88;;;31.34;55.46
52975;BME280;38839;45.186;5.720;2023-07-29T08:39:29;98869.25;;;31.52;55.71
52975;BME280;38839;45.186;5.720;2023-07-29T08:42:02;98868.16;;;33.73;49.96
52975;BME280;38839;45.186;5.720;2023-07-29T08:44:35;98868.50;;;35.31;44.44
52975;BME280;38839;45.186;5.720;2023-07-29T08:47:02;98860.19;;;34.99;43.86
52975;BME280;38839;45.186;5.720;2023-07-29T08:49:28;98867.16;;;35.26;42.61
52975;BME280;38839;45.186;5.720;2023-07-29T08:51:55;98861.06;;;35.16;44.10
52975;BME280;38839;45.186;5.720;2023-07-29T08:54:22;98856.41;;;36.30;42.64
52975;BME280;38839;45.186;5.720;2023-07-29T08:56:48;98853.38;;;36.25;41.79
52975;BME280;38839;45.186;5.720;2023-07-29T08:59:14;98864.00;;;34.13;44.28
52975;BME280;38839;45.186;5.720;2023-07-29T09:01:39;98863.22;;;32.88;48.44
52975;BME280;38839;45.186;5.720;2023-07-29T09:04:05;98848.31;;;34.33;45.90
52975;BME280;38839;45.186;5.720;2023-07-29T09:06:31;98865.94;;;35.54;42.83
52975;BME280;38839;45.186;5.720;2023-07-29T09:08:58;98863.00;;;36.67;40.29
52975;BME280;38839;45.186;5.720;2023-07-29T09:11:24;98859.13;;;36.70;38.63
52975;BME280;38839;45.186;5.720;2023-07-29T09:13:49;98849.84;;;37.78;38.40
52975;BME280;38839;45.186;5.720;2023-07-29T09:16:15;98853.53;;;36.55;39.51
52975;BME280;38839;45.186;5.720;2023-07-29T09:18:40;98854.19;;;37.87;37.83
52975;BME280;38839;45.186;5.720;2023-07-29T09:21:06;98862.53;;;37.10;38.28
52975;BME280;38839;45.186;5.720;2023-07-29T09:23:41;98854.88;;;35.80;40.50
52975;BME280;38839;45.186;5.720;2023-07-29T09:26:07;98847.75;;;34.72;41.57
52975;BME280;38839;45.186;5.720;2023-07-29T09:28:37;98845.28;;;33.67;44.90
52975;BME280;38839;45.186;5.720;2023-07-29T09:31:03;98848.59;;;31.80;48.16
52975;BME280;38839;45.186;5.720;2023-07-29T09:33:29;98849.03;;;32.86;47.39
52975;BME280;38839;45.186;5.720;2023-07-29T09:35:54;98840.97;;;33.57;45.41
52975;BME280;38839;45.186;5.720;2023-07-29T09:38:28;98828.50;;;33.90;45.09
52975;BME280;38839;45.186;5.720;2023-07-29T09:40:57;98828.63;;;33.54;44.93
52975;BME280;38839;45.186;5.720;2023-07-29T09:43:30;98826.97;;;31.90;46.76
52975;BME280;38839;45.186;5.720;2023-07-29T09:45:59;98830.38;;;32.47;46.34
52975;BME280;38839;45.186;5.720;2023-07-29T09:48:25;98823.63;;;32.79;45.93
52975;BME280;38839;45.186;5.720;2023-07-29T09:50:51;98826.78;;;32.57;46.35
52975;BME280;38839;45.186;5.720;2023-07-29T09:53:16;98828.06;;;32.53;46.29
52975;BME280;38839;45.186;5.720;2023-07-29T09:55:46;98825.25;;;32.90;45.78
52975;BME280;38839;45.186;5.720;2023-07-29T09:58:13;98815.78;;;33.30;45.22
52975;BME280;38839;45.186;5.720;2023-07-29T10:00:39;98818.53;;;33.38;44.82
52975;BME280;38839;45.186;5.720;2023-07-29T10:03:06;98824.84;;;33.03;45.71
52975;BME280;38839;45.186;5.720;2023-07-29T10:05:32;98817.13;;;33.08;46.06
52975;BME280;38839;45.186;5.720;2023-07-29T10:08:00;98816.34;;;33.16;45.32
52975;BME280;38839;45.186;5.720;2023-07-29T10:10:26;98817.66;;;33.30;45.28
52975;BME280;38839;45.186;5.720;2023-07-29T10:12:53;98808.66;;;32.85;45.40
52975;BME280;38839;45.186;5.720;2023-07-29T10:15:22;98803.72;;;32.80;45.93
52975;BME280;38839;45.186;5.720;2023-07-29T10:17:48;98803.94;;;32.87;46.35
52975;BME280;38839;45.186;5.720;2023-07-29T10:20:15;98798.16;;;32.64;46.27
52975;BME280;38839;45.186;5.720;2023-07-29T10:22:42;98795.63;;;32.17;47.92
52975;BME280;38839;45.186;5.720;2023-07-29T10:25:18;98798.84;;;32.02;48.82
52975;BME280;38839;45.186;5.720;2023-07-29T10:27:53;98788.41;;;31.80;49.03
52975;BME280;38839;45.186;5.720;2023-07-29T10:30:21;98780.63;;;32.04;48.57
52975;BME280;38839;45.186;5.720;2023-07-29T10:32:47;98775.28;;;32.22;48.05
52975;BME280;38839;45.186;5.720;2023-07-29T10:35:14;98776.44;;;32.38;47.42
52975;BME280;38839;45.186;5.720;2023-07-29T10:37:41;98775.56;;;32.19;47.71
52975;BME280;38839;45.186;5.720;2023-07-29T10:40:09;98768.81;;;32.33;47.79
52975;BME280;38839;45.186;5.720;2023-07-29T10:42:35;98774.41;;;31.94;47.96
52975;BME280;38839;45.186;5.720;2023-07-29T10:45:17;98765.22;;;31.59;48.89
52975;BME280;38839;45.186;5.720;2023-07-29T10:47:42;98756.91;;;31.33;49.79
52975;BME280;38839;45.186;5.720;2023-07-29T10:50:18;98756.44;;;31.57;49.52
52975;BME280;38839;45.186;5.720;2023-07-29T10:52:49;98756.69;;;31.07;49.97
52975;BME280;38839;45.186;5.720;2023-07-29T10:55:31;98750.22;;;31.47;49.76
52975;BME280;38839;45.186;5.720;2023-07-29T11:00:31;98755.06;;;32.08;47.44
52975;BME280;38839;45.186;5.720;2023-07-29T11:03:02;98758.22;;;32.22;46.31
52975;BME280;38839;45.186;5.720;2023-07-29T11:08:29;98756.75;;;31.35;48.89
52975;BME280;38839;45.186;5.720;2023-07-29T11:10:59;98752.00;;;31.09;49.53
52975;BME280;38839;45.186;5.720;2023-07-29T11:13:27;98747.22;;;30.83;49.98
52975;BME280;38839;45.186;5.720;2023-07-29T11:15:54;98747.19;;;31.03;49.64
52975;BME280;38839;45.186;5.720;2023-07-29T11:18:20;98748.91;;;30.94;49.58
52975;BME280;38839;45.186;5.720;2023-07-29T11:20:46;98745.19;;;31.05;49.38
52975;BME280;38839;45.186;5.720;2023-07-29T11:23:13;98743.97;;;30.90;50.29
52975;BME280;38839;45.186;5.720;2023-07-29T11:25:38;98728.78;;;30.88;49.74
52975;BME280;38839;45.186;5.720;2023-07-29T11:28:04;98734.72;;;31.02;49.42
52975;BME280;38839;45.186;5.720;2023-07-29T11:30:29;98731.59;;;30.97;49.73
52975;BME280;38839;45.186;5.720;2023-07-29T11:32:56;98740.13;;;30.92;50.11
52975;BME280;38839;45.186;5.720;2023-07-29T11:35:22;98741.22;;;31.09;49.49
52975;BME280;38839;45.186;5.720;2023-07-29T11:37:49;98736.72;;;31.00;50.26
52975;BME280;38839;45.186;5.720;2023-07-29T11:40:18;98726.94;;;30.69;50.70
52975;BME280;38839;45.186;5.720;2023-07-29T11:42:45;98733.75;;;30.83;50.49
52975;BME280;38839;45.186;5.720;2023-07-29T11:45:12;98721.28;;;30.73;50.02
52975;BME280;38839;45.186;5.720;2023-07-29T11:47:38;98722.84;;;30.85;49.96
52975;BME280;38839;45.186;5.720;2023-07-29T11:50:07;98729.63;;;30.79;50.37
52975;BME280;38839;45.186;5.720;2023-07-29T11:52:40;98726.09;;;30.88;50.40
52975;BME280;38839;45.186;5.720;2023-07-29T11:55:06;98722.78;;;31.14;49.69
52975;BME280;38839;45.186;5.720;2023-07-29T11:57:39;98718.28;;;30.85;50.77
52975;BME280;38839;45.186;5.720;2023-07-29T12:00:06;98716.19;;;30.69;50.52
52975;BME280;38839;45.186;5.720;2023-07-29T12:02:33;98728.75;;;31.08;49.83
52975;BME280;38839;45.186;5.720;2023-07-29T12:05:03;98723.66;;;31.05;50.85
52975;BME280;38839;45.186;5.720;2023-07-29T12:07:29;98733.19;;;30.99;52.40
52975;BME280;38839;45.186;5.720;2023-07-29T12:09:55;98724.41;;;31.35;52.79
52975;BME280;38839;45.186;5.720;2023-07-29T12:12:22;98722.44;;;30.90;54.84
52975;BME280;38839;45.186;5.720;2023-07-29T12:14:48;98722.28;;;30.62;55.79
52975;BME280;38839;45.186;5.720;2023-07-29T12:17:14;98731.38;;;30.32;56.30
52975;BME280;38839;45.186;5.720;2023-07-29T12:19:40;98727.31;;;29.97;57.17
52975;BME280;38839;45.186;5.720;2023-07-29T12:22:08;98735.25;;;29.88;57.48
52975;BME280;38839;45.186;5.720;2023-07-29T12:24:37;98721.50;;;29.20;59.68
52975;BME280;38839;45.186;5.720;2023-07-29T12:27:03;98717.66;;;29.13;59.59
52975;BME280;38839;45.186;5.720;2023-07-29T12:29:28;98718.25;;;29.57;58.90
52975;BME280;38839;45.186;5.720;2023-07-29T12:32:01;98723.19;;;29.83;58.02
52975;BME280;38839;45.186;5.720;2023-07-29T12:34:28;98726.31;;;29.57;57.19
52975;BME280;38839;45.186;5.720;2023-07-29T12:36:55;98715.13;;;30.02;55.04
52975;BME280;38839;45.186;5.720;2023-07-29T12:39:28;98721.94;;;30.06;55.43
52975;BME280;38839;45.186;5.720;2023-07-29T12:41:56;98733.78;;;29.75;54.15
52975;BME280;38839;45.186;5.720;2023-07-29T12:44:29;98722.34;;;29.00;55.25
52975;BME280;38839;45.186;5.720;2023-07-29T12:46:54;98709.59;;;29.44;55.33
52975;BME280;38839;45.186;5.720;2023-07-29T12:49:20;98702.16;;;29.67;55.23
52975;BME280;38839;45.186;5.720;2023-07-29T12:51:45;98698.56;;;29.47;55.46
52975;BME280;38839;45.186;5.720;2023-07-29T12:54:10;98697.59;;;29.17;55.98
52975;BME280;38839;45.186;5.720;2023-07-29T12:56:36;98693.88;;;29.49;56.27
52975;BME280;38839;45.186;5.720;2023-07-29T12:59:02;98705.19;;;29.43;57.53
52975;BME280;38839;45.186;5.720;2023-07-29T13:01:27;98697.28;;;29.72;57.89
52975;BME280;38839;45.186;5.720;2023-07-29T13:03:53;98685.69;;;29.91;57.25